Wetter Infos

Wetter-Informationen für den Flugplatz Hof

Die wichtigsten und aktuellen Wetterdaten für den Flugplatz Hof-Plauen sowie für die Umgebung haben wir hier zusammengestellt.

METARs

EDQM 211750Z 17005KT 120V200 CAVOK 10/07 Q1012

EDDN 212220Z 11004KT CAVOK 13/10 Q1014

EDDP 212220Z 19013KT CAVOK 15/08 Q1010 TEMPO 19015G25KT

EDDC 212220Z 18012KT CAVOK 14/07 Q1012

Hof Wetter

DWD – Abruf von Luftsportberichten HIER


Aktuelles Niederschlagsradar

Quelle: © Deutscher Wetterdienst
Quelle: Deutscher Wetterdienst